createdAt,value
2023-05-09T00:01:51.144Z,30.55
2023-05-09T00:04:17.781Z,31.30
2023-05-09T00:06:44.333Z,31.58
2023-05-09T00:09:11.203Z,31.81
2023-05-09T00:11:37.979Z,32.18
2023-05-09T00:14:04.837Z,31.80
2023-05-09T00:16:33.026Z,31.41
2023-05-09T00:19:00.149Z,31.10
2023-05-09T00:21:26.655Z,31.87
2023-05-09T00:23:53.388Z,32.13
2023-05-09T00:26:20.354Z,32.96
2023-05-09T00:28:46.797Z,35.94
2023-05-09T00:31:13.393Z,36.05
2023-05-09T00:33:39.872Z,37.27
2023-05-09T00:36:06.557Z,37.07
2023-05-09T00:38:33.077Z,38.04
2023-05-09T00:40:59.620Z,37.73
2023-05-09T00:43:26.278Z,38.86
2023-05-09T00:45:52.816Z,36.80
2023-05-09T00:48:19.525Z,37.62
2023-05-09T00:50:47.126Z,38.41
2023-05-09T00:53:14.363Z,40.17
2023-05-09T00:55:41.014Z,40.05
2023-05-09T00:58:07.541Z,40.04
2023-05-09T01:00:34.292Z,38.91
2023-05-09T01:03:00.970Z,38.39
2023-05-09T01:05:32.972Z,40.92
2023-05-09T01:08:14.557Z,39.48
2023-05-09T01:10:49.534Z,41.68
2023-05-09T01:13:24.147Z,42.07
2023-05-09T01:15:51.190Z,42.90
2023-05-09T01:18:27.097Z,42.66
2023-05-09T01:20:59.676Z,43.18
2023-05-09T01:23:26.114Z,42.39
2023-05-09T01:26:05.880Z,41.83
2023-05-09T01:28:36.681Z,40.84
2023-05-09T01:31:04.536Z,41.23
2023-05-09T01:33:33.915Z,41.04
2023-05-09T01:36:04.784Z,40.48
2023-05-09T01:38:32.890Z,40.44
2023-05-09T01:41:00.848Z,40.51
2023-05-09T01:43:29.961Z,40.62
2023-05-09T01:45:59.709Z,41.83
2023-05-09T01:48:30.175Z,41.86
2023-05-09T01:50:58.469Z,40.34
2023-05-09T01:53:27.462Z,40.52
2023-05-09T01:55:54.803Z,40.16
2023-05-09T01:58:22.597Z,39.94
2023-05-09T02:00:50.884Z,39.49
2023-05-09T02:03:18.708Z,40.15
2023-05-09T02:05:48.154Z,40.55
2023-05-09T02:08:15.407Z,39.33
2023-05-09T02:10:42.740Z,38.85
2023-05-09T02:13:09.695Z,39.98
2023-05-09T02:15:36.752Z,38.66
2023-05-09T02:18:03.312Z,38.04
2023-05-09T02:20:30.036Z,38.21
2023-05-09T02:22:56.913Z,38.57
2023-05-09T02:25:23.535Z,36.79
2023-05-09T02:27:52.248Z,37.96
2023-05-09T02:30:24.332Z,36.80
2023-05-09T02:32:54.978Z,36.74
2023-05-09T02:35:23.594Z,36.27
2023-05-09T02:37:51.489Z,36.09
2023-05-09T02:40:19.564Z,34.72
2023-05-09T02:42:46.278Z,34.58
2023-05-09T02:45:13.206Z,34.01
2023-05-09T02:47:40.078Z,34.08
2023-05-09T02:50:07.014Z,32.63
2023-05-09T02:52:33.565Z,33.39
2023-05-09T02:55:00.166Z,33.49
2023-05-09T02:57:26.852Z,32.51
2023-05-09T02:59:53.348Z,32.54
2023-05-09T03:02:19.884Z,31.70
2023-05-09T03:04:46.675Z,31.40
2023-05-09T03:07:13.322Z,31.04
2023-05-09T03:09:41.177Z,30.61
2023-05-09T03:12:08.176Z,29.15
2023-05-09T03:14:34.714Z,29.31
2023-05-09T03:17:01.142Z,30.30
2023-05-09T03:19:27.684Z,29.71
2023-05-09T03:21:54.415Z,29.26
2023-05-09T03:24:21.561Z,29.27
2023-05-09T03:26:48.015Z,28.80
2023-05-09T03:29:14.453Z,29.59
2023-05-09T03:31:40.920Z,28.41
2023-05-09T03:34:07.472Z,28.91
2023-05-09T03:36:33.969Z,29.02
2023-05-09T03:39:00.401Z,29.17
2023-05-09T03:41:27.168Z,28.40
2023-05-09T03:43:53.649Z,27.50
2023-05-09T03:46:20.124Z,28.92
2023-05-09T03:48:46.632Z,28.39
2023-05-09T03:51:13.205Z,28.95
2023-05-09T03:53:39.658Z,28.10
2023-05-09T03:56:06.460Z,27.83
2023-05-09T03:58:32.986Z,26.31
2023-05-09T04:00:59.603Z,27.07
2023-05-09T04:03:26.961Z,27.02
2023-05-09T04:05:53.878Z,25.78
2023-05-09T04:08:21.857Z,25.47
2023-05-09T04:10:49.149Z,25.22
2023-05-09T04:13:16.582Z,24.55
2023-05-09T04:15:43.096Z,24.34
2023-05-09T04:18:09.786Z,23.96
2023-05-09T04:20:36.574Z,23.98
2023-05-09T04:23:03.164Z,24.09
2023-05-09T04:25:31.115Z,22.72
2023-05-09T04:27:57.837Z,23.55
2023-05-09T04:30:27.005Z,23.18
2023-05-09T04:32:55.291Z,22.23
2023-05-09T04:35:22.670Z,21.34
2023-05-09T04:37:49.454Z,21.54
2023-05-09T04:40:15.996Z,19.21
2023-05-09T04:42:42.567Z,20.84
2023-05-09T04:45:09.349Z,20.35
2023-05-09T04:47:35.802Z,19.42
2023-05-09T04:50:02.287Z,20.64
2023-05-09T04:52:28.942Z,20.35
2023-05-09T04:54:55.583Z,19.83
2023-05-09T04:57:22.128Z,19.79
2023-05-09T04:59:49.733Z,18.76
2023-05-09T05:02:16.168Z,19.60
2023-05-09T05:04:42.713Z,19.70
2023-05-09T05:07:09.232Z,18.89
2023-05-09T05:09:35.770Z,19.77
2023-05-09T05:12:04.253Z,19.68
2023-05-09T05:14:31.986Z,19.71
2023-05-09T05:16:58.866Z,19.26
2023-05-09T05:19:25.534Z,19.48
2023-05-09T05:21:52.068Z,19.40
2023-05-09T05:24:18.536Z,19.29
2023-05-09T05:26:45.588Z,20.03
2023-05-09T05:29:12.160Z,19.25
2023-05-09T05:31:38.638Z,19.89
2023-05-09T05:34:05.391Z,19.49
2023-05-09T05:36:32.187Z,18.94
2023-05-09T05:38:58.687Z,20.98
2023-05-09T05:41:26.256Z,23.05
2023-05-09T05:43:54.219Z,21.25
2023-05-09T05:46:21.214Z,18.97
2023-05-09T05:48:47.752Z,19.15
2023-05-09T05:51:14.192Z,18.70
2023-05-09T05:53:40.973Z,18.50
2023-05-09T05:56:07.645Z,18.85
2023-05-09T05:58:34.170Z,19.43
2023-05-09T06:01:00.896Z,18.74
2023-05-09T06:03:27.594Z,19.00
2023-05-09T06:05:54.491Z,18.70
2023-05-09T06:08:20.916Z,19.22
2023-05-09T06:10:47.421Z,18.99
2023-05-09T06:13:13.966Z,19.10
2023-05-09T06:15:40.646Z,18.70
2023-05-09T06:18:07.429Z,16.88
2023-05-09T06:20:34.485Z,18.51
2023-05-09T06:23:00.948Z,18.16
2023-05-09T06:25:27.456Z,18.52
2023-05-09T06:27:53.944Z,18.32
2023-05-09T06:32:49.908Z,17.99
2023-05-09T06:35:16.557Z,17.89
2023-05-09T06:37:43.203Z,17.90
2023-05-09T06:40:09.859Z,17.87
2023-05-09T06:42:36.379Z,17.92
2023-05-09T06:45:02.971Z,18.03
2023-05-09T06:47:29.566Z,17.81
2023-05-09T06:49:56.139Z,18.00
2023-05-09T06:52:22.693Z,17.55
2023-05-09T06:54:49.324Z,17.46
2023-05-09T06:57:15.993Z,17.56
2023-05-09T06:59:42.564Z,17.34
2023-05-09T07:02:08.980Z,18.00
2023-05-09T07:04:35.550Z,17.10
2023-05-09T07:07:02.141Z,16.47
2023-05-09T07:09:28.854Z,16.89
2023-05-09T07:11:55.612Z,16.93
2023-05-09T07:14:22.164Z,17.13
2023-05-09T07:16:48.757Z,16.36
2023-05-09T07:19:15.420Z,17.51
2023-05-09T07:21:42.051Z,17.63
2023-05-09T07:24:08.590Z,16.91
2023-05-09T07:26:35.904Z,16.56
2023-05-09T07:29:02.382Z,16.20
2023-05-09T07:31:29.404Z,16.37
2023-05-09T07:33:55.984Z,16.43
2023-05-09T07:36:22.642Z,16.18
2023-05-09T07:38:50.576Z,16.58
2023-05-09T07:41:17.107Z,16.43
2023-05-09T07:43:43.588Z,15.83
2023-05-09T07:46:10.166Z,16.53
2023-05-09T07:48:36.964Z,15.80
2023-05-09T07:51:03.889Z,15.80
2023-05-09T07:53:30.523Z,15.31
2023-05-09T07:55:58.377Z,15.35
2023-05-09T07:58:24.899Z,14.65
2023-05-09T08:00:51.475Z,13.89
2023-05-09T08:03:18.310Z,14.78
2023-05-09T08:05:44.873Z,13.89
2023-05-09T08:08:11.371Z,13.37
2023-05-09T08:10:37.833Z,13.12
2023-05-09T08:13:04.356Z,13.28
2023-05-09T08:15:31.371Z,12.90
2023-05-09T08:17:57.836Z,12.79
2023-05-09T08:20:24.494Z,13.28
2023-05-09T08:22:51.065Z,13.41
2023-05-09T08:25:18.256Z,12.52
2023-05-09T08:27:44.863Z,13.52
2023-05-09T08:30:11.733Z,12.92
2023-05-09T08:32:38.324Z,13.74
2023-05-09T08:35:04.995Z,13.65
2023-05-09T08:37:31.837Z,13.69
2023-05-09T08:39:58.354Z,13.31
2023-05-09T08:42:26.628Z,13.75
2023-05-09T08:44:53.261Z,13.36
2023-05-09T08:47:21.151Z,13.20
2023-05-09T08:49:49.311Z,13.28
2023-05-09T08:52:16.700Z,12.58
2023-05-09T08:54:44.040Z,12.80
2023-05-09T08:57:10.579Z,13.16
2023-05-09T08:59:38.271Z,14.31
2023-05-09T09:02:07.383Z,13.30
2023-05-09T09:04:34.204Z,13.76
2023-05-09T09:07:01.091Z,13.17
2023-05-09T09:09:28.378Z,12.96
2023-05-09T09:11:55.527Z,12.57
2023-05-09T09:14:28.386Z,12.21
2023-05-09T09:16:55.949Z,12.05
2023-05-09T09:19:29.771Z,11.85
2023-05-09T09:22:00.067Z,11.40
2023-05-09T09:24:26.799Z,12.04
2023-05-09T09:26:53.298Z,11.59
2023-05-09T09:29:21.031Z,11.09
2023-05-09T09:31:48.182Z,10.68
2023-05-09T09:34:21.429Z,10.49
2023-05-09T09:36:48.585Z,10.45
2023-05-09T09:39:15.851Z,10.53
2023-05-09T09:41:42.582Z,10.14
2023-05-09T09:44:13.122Z,10.04
2023-05-09T09:46:50.891Z,9.96
2023-05-09T09:49:25.439Z,9.63
2023-05-09T09:51:56.185Z,9.30
2023-05-09T09:54:23.099Z,8.70
2023-05-09T09:56:51.799Z,9.14
2023-05-09T09:59:20.569Z,9.31
2023-05-09T10:01:59.398Z,8.90
2023-05-09T10:04:27.815Z,8.64
2023-05-09T10:07:05.911Z,8.43
2023-05-09T10:09:33.394Z,8.56
2023-05-09T10:12:04.311Z,8.69
2023-05-09T10:14:34.217Z,8.65
2023-05-09T10:17:02.801Z,8.50
2023-05-09T10:19:30.130Z,8.84
2023-05-09T10:21:58.358Z,9.00
2023-05-09T10:24:34.051Z,9.05
2023-05-09T10:27:06.105Z,8.92
2023-05-09T10:29:35.839Z,8.73
2023-05-09T10:32:09.582Z,8.86
2023-05-09T10:34:39.444Z,9.10
2023-05-09T10:37:06.503Z,8.62
2023-05-09T10:39:33.216Z,8.59
2023-05-09T10:42:01.074Z,8.57
2023-05-09T10:44:28.575Z,8.78
2023-05-09T10:46:56.169Z,8.41
2023-05-09T10:49:23.181Z,8.28
2023-05-09T10:51:51.309Z,8.52
2023-05-09T10:54:30.701Z,8.68
2023-05-09T10:56:57.994Z,8.26
2023-05-09T10:59:35.753Z,7.86
2023-05-09T11:02:05.312Z,8.40
2023-05-09T11:04:32.661Z,8.49
2023-05-09T11:07:00.282Z,8.69
2023-05-09T11:09:41.604Z,7.98
2023-05-09T11:12:12.597Z,8.40
2023-05-09T11:14:44.756Z,8.38
2023-05-09T11:17:27.481Z,8.06
2023-05-09T11:19:59.393Z,8.42
2023-05-09T11:22:32.375Z,8.33
2023-05-09T11:25:04.861Z,8.13
2023-05-09T11:27:43.397Z,7.99
2023-05-09T11:30:11.980Z,8.18
2023-05-09T11:32:43.876Z,7.74
2023-05-09T11:35:15.373Z,8.43
2023-05-09T11:37:50.347Z,7.82
2023-05-09T11:40:18.857Z,8.68
2023-05-09T11:42:50.162Z,8.18
2023-05-09T11:45:17.640Z,7.96
2023-05-09T11:47:45.792Z,7.76
2023-05-09T11:50:13.533Z,7.16
2023-05-09T11:52:41.071Z,7.30
2023-05-09T11:55:12.638Z,7.88
2023-05-09T11:57:41.002Z,7.86
2023-05-09T12:00:09.410Z,7.63
2023-05-09T12:02:36.802Z,8.18
2023-05-09T12:05:29.624Z,8.44
2023-05-09T12:08:02.283Z,8.58
2023-05-09T12:10:28.809Z,8.71
2023-05-09T12:12:56.286Z,8.58
2023-05-09T12:15:23.162Z,8.64
2023-05-09T12:18:06.136Z,8.17
2023-05-09T12:20:42.306Z,8.29
2023-05-09T12:23:12.603Z,8.58
2023-05-09T12:25:39.047Z,10.78
2023-05-09T12:28:05.988Z,10.11
2023-05-09T12:30:32.609Z,8.87
2023-05-09T12:32:59.115Z,9.07
2023-05-09T12:35:25.676Z,9.51
2023-05-09T12:37:58.716Z,8.87
2023-05-09T12:40:25.307Z,8.55
2023-05-09T12:42:54.322Z,7.75
2023-05-09T12:45:21.100Z,7.21
2023-05-09T12:47:51.425Z,7.37
2023-05-09T12:50:18.100Z,7.57
2023-05-09T12:53:01.935Z,6.83
2023-05-09T12:55:31.688Z,7.09
2023-05-09T12:58:02.475Z,6.65
2023-05-09T13:00:29.467Z,6.54
2023-05-09T13:02:56.351Z,6.35
2023-05-09T13:05:23.436Z,6.35
2023-05-09T13:07:52.370Z,6.48
2023-05-09T13:10:27.439Z,6.32
2023-05-09T13:12:54.668Z,6.43
2023-05-09T13:15:22.711Z,6.59
2023-05-09T13:17:50.439Z,6.55
2023-05-09T13:20:18.172Z,6.91
2023-05-09T13:22:45.721Z,6.86
2023-05-09T13:25:12.911Z,6.89
2023-05-09T13:27:39.446Z,7.39
2023-05-09T13:30:09.270Z,7.48
2023-05-09T13:32:36.631Z,7.05
2023-05-09T13:35:04.574Z,7.08
2023-05-09T13:37:31.054Z,7.30
2023-05-09T13:39:57.739Z,6.96
2023-05-09T13:42:24.347Z,7.35
2023-05-09T13:44:51.123Z,7.37
2023-05-09T13:47:17.623Z,6.63
2023-05-09T13:49:44.148Z,5.63
2023-05-09T13:52:10.722Z,5.35
2023-05-09T13:54:37.555Z,4.97
2023-05-09T13:57:04.928Z,4.79
2023-05-09T13:59:32.357Z,4.33
2023-05-09T14:02:00.140Z,4.36
2023-05-09T14:04:27.805Z,4.06
2023-05-09T14:06:54.900Z,3.80
2023-05-09T14:09:22.222Z,4.11
2023-05-09T14:11:50.788Z,4.15
2023-05-09T14:14:24.519Z,4.39
2023-05-09T14:16:51.751Z,4.38
2023-05-09T14:19:18.546Z,4.05
2023-05-09T14:21:45.133Z,4.55
2023-05-09T14:24:15.087Z,4.12
2023-05-09T14:26:42.414Z,4.20
2023-05-09T14:29:09.027Z,4.41
2023-05-09T14:31:35.524Z,4.32
2023-05-09T14:34:02.026Z,4.34
2023-05-09T14:36:28.957Z,4.46
2023-05-09T14:38:55.480Z,4.53
2023-05-09T14:41:22.275Z,4.44
2023-05-09T14:43:49.075Z,4.64
2023-05-09T14:46:15.573Z,4.54
2023-05-09T14:48:42.145Z,4.67
2023-05-09T14:51:08.713Z,4.57
2023-05-09T14:53:39.713Z,4.41
2023-05-09T14:56:06.885Z,4.64
2023-05-09T14:58:36.352Z,4.57
2023-05-09T15:01:04.179Z,4.85
2023-05-09T15:03:30.757Z,4.72
2023-05-09T15:05:58.656Z,4.69
2023-05-09T15:08:25.564Z,4.97
2023-05-09T15:10:52.075Z,5.05
2023-05-09T15:13:18.631Z,5.34
2023-05-09T15:15:45.162Z,4.87
2023-05-09T15:18:13.300Z,5.06
2023-05-09T15:20:40.093Z,4.65
2023-05-09T15:23:07.580Z,4.30
2023-05-09T15:25:34.677Z,4.30
2023-05-09T15:28:01.332Z,4.02
2023-05-09T15:30:27.872Z,4.15
2023-05-09T15:32:54.409Z,4.36
2023-05-09T15:35:21.051Z,4.53
2023-05-09T15:37:47.582Z,4.82
2023-05-09T15:40:14.356Z,4.74
2023-05-09T15:42:41.128Z,4.56
2023-05-09T15:45:07.995Z,4.62
2023-05-09T15:47:34.714Z,4.43
2023-05-09T15:50:01.352Z,4.56
2023-05-09T15:52:27.902Z,4.63
2023-05-09T15:54:54.908Z,4.42
2023-05-09T15:57:21.571Z,5.08
2023-05-09T15:59:48.111Z,5.54
2023-05-09T16:02:14.789Z,5.46
2023-05-09T16:04:42.619Z,5.09
2023-05-09T16:07:09.086Z,5.98
2023-05-09T16:09:35.852Z,5.67
2023-05-09T16:12:03.310Z,5.41
2023-05-09T16:14:29.808Z,5.65
2023-05-09T16:16:56.349Z,5.96
2023-05-09T16:19:22.873Z,5.82
2023-05-09T16:21:49.464Z,5.55
2023-05-09T16:24:16.129Z,5.85
2023-05-09T16:26:42.816Z,5.73
2023-05-09T16:29:09.855Z,5.74
2023-05-09T16:31:36.339Z,5.71
2023-05-09T16:34:02.973Z,5.22
2023-05-09T16:36:32.570Z,4.91
2023-05-09T16:38:59.158Z,5.18
2023-05-09T16:41:25.621Z,5.67
2023-05-09T16:43:53.006Z,6.49
2023-05-09T16:46:19.680Z,6.06
2023-05-09T16:48:46.377Z,5.69
2023-05-09T16:51:12.835Z,5.54
2023-05-09T16:53:39.373Z,6.34
2023-05-09T16:56:06.189Z,5.79
2023-05-09T16:58:32.978Z,5.38
2023-05-09T17:01:02.196Z,5.12
2023-05-09T17:03:29.287Z,4.23
2023-05-09T17:05:55.859Z,3.80
2023-05-09T17:08:22.450Z,3.21
2023-05-09T17:10:49.038Z,3.30
2023-05-09T17:13:15.480Z,2.84
2023-05-09T17:15:42.386Z,2.53
2023-05-09T17:18:09.029Z,2.70
2023-05-09T17:20:35.740Z,2.58
2023-05-09T17:23:02.283Z,2.55
2023-05-09T17:25:28.866Z,2.69
2023-05-09T17:27:55.355Z,2.58
2023-05-09T17:30:23.119Z,2.66
2023-05-09T17:32:50.418Z,2.73
2023-05-09T17:35:19.370Z,2.93
2023-05-09T17:37:46.190Z,2.60
2023-05-09T17:40:12.838Z,2.66
2023-05-09T17:42:39.381Z,2.43
2023-05-09T17:45:06.235Z,2.47
2023-05-09T17:47:32.974Z,2.55
2023-05-09T17:49:59.496Z,2.41
2023-05-09T17:52:26.029Z,2.41
2023-05-09T17:54:52.543Z,2.55
2023-05-09T17:57:19.013Z,2.91
2023-05-09T17:59:47.839Z,3.45
2023-05-09T18:02:14.460Z,3.28
2023-05-09T18:04:40.957Z,2.49
2023-05-09T18:07:08.318Z,2.53
2023-05-09T18:09:34.867Z,2.18
2023-05-09T18:12:01.466Z,2.12
2023-05-09T18:14:28.623Z,2.01
2023-05-09T18:16:55.180Z,2.12
2023-05-09T18:19:21.685Z,2.20
2023-05-09T18:21:48.337Z,1.99
2023-05-09T18:24:16.909Z,2.20
2023-05-09T18:26:43.676Z,1.98
2023-05-09T18:29:10.312Z,2.29
2023-05-09T18:31:38.884Z,2.29
2023-05-09T18:34:06.068Z,2.78
2023-05-09T18:36:32.789Z,2.70
2023-05-09T18:38:59.474Z,2.57
2023-05-09T18:41:26.403Z,2.55
2023-05-09T18:43:53.106Z,3.95
2023-05-09T18:46:22.493Z,2.86
2023-05-09T18:48:50.348Z,4.32
2023-05-09T18:51:20.078Z,3.22
2023-05-09T18:53:47.389Z,5.08
2023-05-09T18:56:14.089Z,4.02
2023-05-09T18:58:40.619Z,5.48
2023-05-09T19:01:11.440Z,3.65
2023-05-09T19:03:43.659Z,3.98
2023-05-09T19:06:12.979Z,5.50
2023-05-09T19:08:40.643Z,6.51
2023-05-09T19:11:07.311Z,6.86
2023-05-09T19:13:37.104Z,6.72
2023-05-09T19:16:07.554Z,7.06
2023-05-09T19:18:34.662Z,6.62
2023-05-09T19:21:01.731Z,9.00
2023-05-09T19:23:28.459Z,11.92
2023-05-09T19:25:55.192Z,13.61
2023-05-09T19:28:23.176Z,10.29
2023-05-09T19:30:50.272Z,6.50
2023-05-09T19:33:17.153Z,6.53
2023-05-09T19:35:45.018Z,11.02
2023-05-09T19:38:12.085Z,8.89
2023-05-09T19:40:39.132Z,9.04
2023-05-09T19:43:05.910Z,9.06
2023-05-09T19:45:32.537Z,11.26
2023-05-09T19:47:59.100Z,8.86
2023-05-09T19:50:25.677Z,7.22
2023-05-09T19:52:52.114Z,5.07
2023-05-09T19:55:18.636Z,4.46
2023-05-09T19:57:45.130Z,4.73
2023-05-09T20:00:12.008Z,4.95
2023-05-09T20:02:39.135Z,4.09
2023-05-09T20:05:05.976Z,3.97
2023-05-09T20:07:32.486Z,4.24
2023-05-09T20:09:59.074Z,4.60
2023-05-09T20:12:27.312Z,4.39
2023-05-09T20:14:55.096Z,3.85
2023-05-09T20:17:21.711Z,4.15
2023-05-09T20:20:07.321Z,4.04
2023-05-09T20:22:34.926Z,4.10
2023-05-09T20:25:01.402Z,4.55
2023-05-09T20:27:28.165Z,4.04
2023-05-09T20:29:54.653Z,4.12
2023-05-09T20:32:22.318Z,4.56
2023-05-09T20:34:48.843Z,4.68
2023-05-09T20:37:16.027Z,4.57
2023-05-09T20:39:42.507Z,4.91
2023-05-09T20:42:09.109Z,5.09
2023-05-09T20:44:35.654Z,5.38
2023-05-09T20:47:02.073Z,5.75
2023-05-09T20:49:28.555Z,5.71
2023-05-09T20:51:55.304Z,6.77
2023-05-09T20:54:23.879Z,7.59
2023-05-09T20:56:50.530Z,8.06
2023-05-09T20:59:17.187Z,9.01
2023-05-09T21:01:43.999Z,9.67
2023-05-09T21:04:10.479Z,10.33
2023-05-09T21:06:37.241Z,11.12
2023-05-09T21:09:09.165Z,12.59
2023-05-09T21:11:37.362Z,13.52
2023-05-09T21:14:03.986Z,14.02
2023-05-09T21:16:30.749Z,14.03
2023-05-09T21:18:59.451Z,16.44
2023-05-09T21:21:26.063Z,16.50
2023-05-09T21:23:52.510Z,16.86
2023-05-09T21:26:19.105Z,17.08
2023-05-09T21:28:45.556Z,17.91
2023-05-09T21:31:12.003Z,17.53
2023-05-09T21:33:38.744Z,17.93
2023-05-09T21:36:06.393Z,18.34
2023-05-09T21:38:32.882Z,18.99
2023-05-09T21:40:59.340Z,18.17
2023-05-09T21:43:25.843Z,19.23
2023-05-09T21:45:52.308Z,18.82
2023-05-09T21:48:18.775Z,19.65
2023-05-09T21:50:46.295Z,19.24
2023-05-09T21:53:13.055Z,19.98
2023-05-09T21:55:39.884Z,19.65
2023-05-09T21:58:06.331Z,20.19
2023-05-09T22:00:33.079Z,19.92
2023-05-09T22:02:59.623Z,19.19
2023-05-09T22:05:26.137Z,20.42
2023-05-09T22:07:52.660Z,20.51
2023-05-09T22:10:19.293Z,20.42
2023-05-09T22:12:45.955Z,22.41
2023-05-09T22:15:13.099Z,22.23
2023-05-09T22:17:39.615Z,22.15
2023-05-09T22:20:06.666Z,22.45
2023-05-09T22:22:33.333Z,22.31
2023-05-09T22:24:59.884Z,23.39
2023-05-09T22:27:26.365Z,23.89
2023-05-09T22:29:53.029Z,23.40
2023-05-09T22:32:19.581Z,23.04
2023-05-09T22:34:46.801Z,23.53
2023-05-09T22:37:13.354Z,22.95
2023-05-09T22:39:40.208Z,23.56
2023-05-09T22:42:09.291Z,22.16
2023-05-09T22:44:35.740Z,23.71
2023-05-09T22:47:02.246Z,23.79
2023-05-09T22:49:28.806Z,24.15
2023-05-09T22:51:55.276Z,22.46
2023-05-09T22:54:22.151Z,21.79
2023-05-09T22:56:48.644Z,24.24
2023-05-09T22:59:15.117Z,23.52
2023-05-09T23:01:41.861Z,23.21
2023-05-09T23:04:08.465Z,24.45
2023-05-09T23:06:34.956Z,24.03
2023-05-09T23:09:01.496Z,25.01
2023-05-09T23:11:28.005Z,24.70
2023-05-09T23:13:54.566Z,24.13
2023-05-09T23:16:21.154Z,25.48
2023-05-09T23:18:47.710Z,25.49
2023-05-09T23:21:14.455Z,25.07
2023-05-09T23:23:40.961Z,24.63
2023-05-09T23:26:07.414Z,25.05
2023-05-09T23:28:33.834Z,24.76
2023-05-09T23:31:00.419Z,24.49
2023-05-09T23:33:26.875Z,24.21
2023-05-09T23:35:53.644Z,25.44
2023-05-09T23:38:20.384Z,25.50
2023-05-09T23:40:46.814Z,25.77
2023-05-09T23:43:13.568Z,26.55
2023-05-09T23:45:40.219Z,25.73
2023-05-09T23:48:07.598Z,25.71
2023-05-09T23:50:34.194Z,26.43
2023-05-09T23:53:00.630Z,26.01
2023-05-09T23:55:27.174Z,26.67
2023-05-09T23:57:53.600Z,26.55
